sensor_id;sensor_type;location;lat;lon;timestamp;P1;durP1;ratioP1;P2;durP2;ratioP2
31348;SDS011;17976;48.480;11.946;2023-03-24T07:59:14;9.57;;;6.88;;
31348;SDS011;17976;48.480;11.946;2023-03-24T08:01:41;11.40;;;7.20;;
31348;SDS011;17976;48.480;11.946;2023-03-24T08:04:08;10.43;;;7.22;;
31348;SDS011;17976;48.480;11.946;2023-03-24T08:06:35;10.60;;;6.40;;
31348;SDS011;17976;48.480;11.946;2023-03-24T08:09:00;9.50;;;6.82;;
31348;SDS011;17976;48.480;11.946;2023-03-24T08:11:27;13.25;;;6.55;;
31348;SDS011;17976;48.480;11.946;2023-03-24T08:13:53;12.25;;;6.32;;
31348;SDS011;17976;48.480;11.946;2023-03-24T08:16:19;8.52;;;5.63;;
31348;SDS011;17976;48.480;11.946;2023-03-24T08:18:45;14.93;;;6.53;;
31348;SDS011;17976;48.480;11.946;2023-03-24T08:21:12;13.48;;;6.57;;
31348;SDS011;17976;48.480;11.946;2023-03-24T08:23:38;13.27;;;6.25;;
31348;SDS011;17976;48.480;11.946;2023-03-24T08:26:05;13.35;;;6.15;;
31348;SDS011;17976;48.480;11.946;2023-03-24T08:28:31;9.57;;;5.88;;
31348;SDS011;17976;48.480;11.946;2023-03-24T08:30:57;8.43;;;5.85;;
31348;SDS011;17976;48.480;11.946;2023-03-24T08:33:23;9.52;;;5.68;;
31348;SDS011;17976;48.480;11.946;2023-03-24T08:35:50;7.68;;;5.50;;
31348;SDS011;17976;48.480;11.946;2023-03-24T08:38:21;10.55;;;5.53;;
31348;SDS011;17976;48.480;11.946;2023-03-24T08:40:55;7.72;;;5.90;;
31348;SDS011;17976;48.480;11.946;2023-03-24T08:43:22;9.02;;;5.95;;
31348;SDS011;17976;48.480;11.946;2023-03-24T08:45:49;10.98;;;6.18;;
31348;SDS011;17976;48.480;11.946;2023-03-24T08:48:15;13.23;;;6.45;;
31348;SDS011;17976;48.480;11.946;2023-03-24T08:50:41;10.02;;;6.20;;
31348;SDS011;17976;48.480;11.946;2023-03-24T08:53:08;10.90;;;5.85;;
31348;SDS011;17976;48.480;11.946;2023-03-24T08:55:35;8.90;;;6.07;;
31348;SDS011;17976;48.480;11.946;2023-03-24T08:58:05;11.15;;;5.68;;
31348;SDS011;17976;48.480;11.946;2023-03-24T09:00:32;9.02;;;6.15;;
31348;SDS011;17976;48.480;11.946;2023-03-24T09:02:58;8.27;;;6.05;;
31348;SDS011;17976;48.480;11.946;2023-03-24T09:05:25;11.10;;;6.00;;
31348;SDS011;17976;48.480;11.946;2023-03-24T09:07:51;10.35;;;5.72;;
31348;SDS011;17976;48.480;11.946;2023-03-24T09:10:18;10.60;;;6.40;;
31348;SDS011;17976;48.480;11.946;2023-03-24T09:12:46;15.02;;;6.05;;
31348;SDS011;17976;48.480;11.946;2023-03-24T09:15:12;11.48;;;5.07;;
31348;SDS011;17976;48.480;11.946;2023-03-24T09:17:39;6.15;;;4.75;;
31348;SDS011;17976;48.480;11.946;2023-03-24T09:20:06;10.15;;;4.93;;
31348;SDS011;17976;48.480;11.946;2023-03-24T09:22:36;6.80;;;5.03;;
31348;SDS011;17976;48.480;11.946;2023-03-24T09:25:02;6.57;;;4.30;;
31348;SDS011;17976;48.480;11.946;2023-03-24T09:27:28;8.95;;;4.65;;
31348;SDS011;17976;48.480;11.946;2023-03-24T09:29:53;6.50;;;4.70;;
31348;SDS011;17976;48.480;11.946;2023-03-24T09:32:20;7.82;;;5.18;;
31348;SDS011;17976;48.480;11.946;2023-03-24T09:34:46;11.32;;;5.65;;
31348;SDS011;17976;48.480;11.946;2023-03-24T09:37:12;8.95;;;6.03;;
31348;SDS011;17976;48.480;11.946;2023-03-24T09:39:38;11.00;;;6.03;;
31348;SDS011;17976;48.480;11.946;2023-03-24T09:42:04;10.27;;;4.97;;
31348;SDS011;17976;48.480;11.946;2023-03-24T09:44:32;9.00;;;5.07;;
31348;SDS011;17976;48.480;11.946;2023-03-24T09:46:59;5.88;;;4.40;;
31348;SDS011;17976;48.480;11.946;2023-03-24T09:49:28;9.10;;;4.78;;
31348;SDS011;17976;48.480;11.946;2023-03-24T09:51:57;8.45;;;5.05;;
31348;SDS011;17976;48.480;11.946;2023-03-24T09:54:26;7.68;;;4.70;;
31348;SDS011;17976;48.480;11.946;2023-03-24T09:56:54;7.70;;;4.50;;
31348;SDS011;17976;48.480;11.946;2023-03-24T09:59:28;72.20;;;7.70;;
31348;SDS011;17976;48.480;11.946;2023-03-24T10:01:56;6.70;;;3.58;;
31348;SDS011;17976;48.480;11.946;2023-03-24T10:04:23;7.88;;;4.50;;
31348;SDS011;17976;48.480;11.946;2023-03-24T10:06:55;5.45;;;3.60;;
31348;SDS011;17976;48.480;11.946;2023-03-24T10:09:26;5.43;;;3.60;;
31348;SDS011;17976;48.480;11.946;2023-03-24T10:17:22;9.88;;;3.40;;
31348;SDS011;17976;48.480;11.946;2023-03-24T10:19:55;4.60;;;3.22;;
31348;SDS011;17976;48.480;11.946;2023-03-24T10:27:35;6.35;;;2.80;;
31348;SDS011;17976;48.480;11.946;2023-03-24T10:30:21;4.78;;;2.80;;
31348;SDS011;17976;48.480;11.946;2023-03-24T10:32:48;4.80;;;2.83;;
31348;SDS011;17976;48.480;11.946;2023-03-24T10:35:18;6.68;;;3.08;;
31348;SDS011;17976;48.480;11.946;2023-03-24T10:37:46;4.90;;;3.00;;
31348;SDS011;17976;48.480;11.946;2023-03-24T10:40:14;6.25;;;2.88;;
31348;SDS011;17976;48.480;11.946;2023-03-24T10:42:42;4.72;;;2.88;;
31348;SDS011;17976;48.480;11.946;2023-03-24T10:45:13;4.55;;;2.92;;
31348;SDS011;17976;48.480;11.946;2023-03-24T10:47:40;5.18;;;2.97;;
31348;SDS011;17976;48.480;11.946;2023-03-24T10:50:06;4.07;;;3.05;;
31348;SDS011;17976;48.480;11.946;2023-03-24T10:52:40;4.18;;;3.10;;
31348;SDS011;17976;48.480;11.946;2023-03-24T10:55:06;7.55;;;2.70;;
31348;SDS011;17976;48.480;11.946;2023-03-24T10:57:32;5.40;;;2.78;;
31348;SDS011;17976;48.480;11.946;2023-03-24T11:00:00;6.63;;;2.83;;
31348;SDS011;17976;48.480;11.946;2023-03-24T11:02:30;5.70;;;2.78;;
31348;SDS011;17976;48.480;11.946;2023-03-24T11:04:57;4.78;;;2.60;;
31348;SDS011;17976;48.480;11.946;2023-03-24T11:07:40;3.78;;;2.78;;
31348;SDS011;17976;48.480;11.946;2023-03-24T11:12:36;3.63;;;2.92;;
31348;SDS011;17976;48.480;11.946;2023-03-24T11:15:22;6.57;;;3.20;;
31348;SDS011;17976;48.480;11.946;2023-03-24T11:17:52;7.00;;;3.45;;
31348;SDS011;17976;48.480;11.946;2023-03-24T11:20:19;5.13;;;2.55;;
31348;SDS011;17976;48.480;11.946;2023-03-24T11:23:02;4.05;;;2.38;;
31348;SDS011;17976;48.480;11.946;2023-03-24T11:25:30;6.90;;;2.70;;
31348;SDS011;17976;48.480;11.946;2023-03-24T11:27:58;3.47;;;2.75;;
31348;SDS011;17976;48.480;11.946;2023-03-24T11:30:26;3.88;;;2.28;;
31348;SDS011;17976;48.480;11.946;2023-03-24T11:32:54;3.78;;;2.33;;
31348;SDS011;17976;48.480;11.946;2023-03-24T11:35:21;4.57;;;2.35;;
31348;SDS011;17976;48.480;11.946;2023-03-24T11:37:47;3.35;;;2.22;;
31348;SDS011;17976;48.480;11.946;2023-03-24T11:42:46;4.80;;;2.40;;
31348;SDS011;17976;48.480;11.946;2023-03-24T11:45:48;3.40;;;2.35;;
31348;SDS011;17976;48.480;11.946;2023-03-24T11:48:23;2.90;;;2.08;;
31348;SDS011;17976;48.480;11.946;2023-03-24T11:50:50;3.70;;;2.30;;
31348;SDS011;17976;48.480;11.946;2023-03-24T11:53:21;4.05;;;2.50;;
31348;SDS011;17976;48.480;11.946;2023-03-24T12:03:35;3.78;;;2.33;;
31348;SDS011;17976;48.480;11.946;2023-03-24T12:08:37;6.35;;;4.15;;
31348;SDS011;17976;48.480;11.946;2023-03-24T12:26:30;4.75;;;1.75;;
31348;SDS011;17976;48.480;11.946;2023-03-24T12:31:37;4.63;;;2.63;;
31348;SDS011;17976;48.480;11.946;2023-03-24T12:37:06;1.33;;;1.13;;
31348;SDS011;17976;48.480;11.946;2023-03-24T12:39:36;3.08;;;1.38;;
31348;SDS011;17976;48.480;11.946;2023-03-24T12:42:08;1.77;;;1.42;;
31348;SDS011;17976;48.480;11.946;2023-03-24T12:55:20;3.25;;;1.90;;
31348;SDS011;17976;48.480;11.946;2023-03-24T12:57:56;5.63;;;2.40;;
31348;SDS011;17976;48.480;11.946;2023-03-24T13:00:25;2.03;;;1.10;;
31348;SDS011;17976;48.480;11.946;2023-03-24T13:02:57;5.72;;;3.13;;
31348;SDS011;17976;48.480;11.946;2023-03-24T13:05:27;3.65;;;2.25;;
31348;SDS011;17976;48.480;11.946;2023-03-24T13:07:55;9.48;;;5.07;;
31348;SDS011;17976;48.480;11.946;2023-03-24T13:10:26;4.60;;;2.75;;
31348;SDS011;17976;48.480;11.946;2023-03-24T13:12:59;17.33;;;8.50;;
31348;SDS011;17976;48.480;11.946;2023-03-24T13:15:32;3.05;;;1.92;;
31348;SDS011;17976;48.480;11.946;2023-03-24T13:20:36;7.75;;;4.63;;
31348;SDS011;17976;48.480;11.946;2023-03-24T13:25:51;14.32;;;7.80;;
31348;SDS011;17976;48.480;11.946;2023-03-24T13:28:20;10.88;;;5.85;;
31348;SDS011;17976;48.480;11.946;2023-03-24T13:30:47;12.25;;;6.88;;
31348;SDS011;17976;48.480;11.946;2023-03-24T13:33:19;17.80;;;9.23;;
31348;SDS011;17976;48.480;11.946;2023-03-24T13:41:01;3.75;;;2.45;;
31348;SDS011;17976;48.480;11.946;2023-03-24T13:43:28;3.95;;;1.48;;
31348;SDS011;17976;48.480;11.946;2023-03-24T13:45:59;4.70;;;2.85;;
31348;SDS011;17976;48.480;11.946;2023-03-24T13:48:28;8.75;;;4.68;;
31348;SDS011;17976;48.480;11.946;2023-03-24T13:50:56;8.73;;;4.65;;
31348;SDS011;17976;48.480;11.946;2023-03-24T13:53:34;13.63;;;6.25;;
31348;SDS011;17976;48.480;11.946;2023-03-24T13:56:01;15.75;;;7.70;;
31348;SDS011;17976;48.480;11.946;2023-03-24T13:58:43;24.00;;;10.65;;
31348;SDS011;17976;48.480;11.946;2023-03-24T14:03:42;60.28;;;23.40;;
31348;SDS011;17976;48.480;11.946;2023-03-24T14:06:10;15.82;;;7.22;;
31348;SDS011;17976;48.480;11.946;2023-03-24T14:19:23;1.40;;;0.75;;
31348;SDS011;17976;48.480;11.946;2023-03-24T14:21:50;1.25;;;0.70;;
31348;SDS011;17976;48.480;11.946;2023-03-24T14:24:24;3.15;;;0.70;;
31348;SDS011;17976;48.480;11.946;2023-03-24T14:29:36;1.23;;;0.45;;
31348;SDS011;17976;48.480;11.946;2023-03-24T14:32:03;2.35;;;0.63;;
31348;SDS011;17976;48.480;11.946;2023-03-24T14:34:29;1.00;;;0.60;;
31348;SDS011;17976;48.480;11.946;2023-03-24T14:37:01;0.60;;;0.57;;
31348;SDS011;17976;48.480;11.946;2023-03-24T14:39:44;1.77;;;0.50;;
31348;SDS011;17976;48.480;11.946;2023-03-24T14:44:55;0.50;;;0.50;;
31348;SDS011;17976;48.480;11.946;2023-03-24T14:47:22;0.65;;;0.50;;
31348;SDS011;17976;48.480;11.946;2023-03-24T14:49:50;2.55;;;0.60;;
31348;SDS011;17976;48.480;11.946;2023-03-24T14:52:18;2.47;;;0.80;;
31348;SDS011;17976;48.480;11.946;2023-03-24T14:54:47;3.60;;;0.60;;
31348;SDS011;17976;48.480;11.946;2023-03-24T14:57:22;0.88;;;0.68;;
31348;SDS011;17976;48.480;11.946;2023-03-24T15:00:03;1.05;;;0.73;;
31348;SDS011;17976;48.480;11.946;2023-03-24T15:02:46;1.58;;;1.00;;
31348;SDS011;17976;48.480;11.946;2023-03-24T15:07:39;1.90;;;0.80;;
31348;SDS011;17976;48.480;11.946;2023-03-24T15:10:05;0.95;;;0.63;;
31348;SDS011;17976;48.480;11.946;2023-03-24T15:12:32;0.90;;;0.60;;
31348;SDS011;17976;48.480;11.946;2023-03-24T15:14:58;1.98;;;0.90;;
31348;SDS011;17976;48.480;11.946;2023-03-24T15:17:25;2.30;;;0.90;;
31348;SDS011;17976;48.480;11.946;2023-03-24T15:19:51;1.77;;;0.80;;
31348;SDS011;17976;48.480;11.946;2023-03-24T15:22:18;1.20;;;0.82;;
31348;SDS011;17976;48.480;11.946;2023-03-24T15:24:48;1.38;;;0.70;;
31348;SDS011;17976;48.480;11.946;2023-03-24T15:29:41;1.70;;;1.15;;
31348;SDS011;17976;48.480;11.946;2023-03-24T15:32:17;1.23;;;0.93;;
31348;SDS011;17976;48.480;11.946;2023-03-24T15:34:48;2.20;;;0.93;;
31348;SDS011;17976;48.480;11.946;2023-03-24T15:37:20;2.67;;;1.08;;
31348;SDS011;17976;48.480;11.946;2023-03-24T15:39:48;2.53;;;1.23;;
31348;SDS011;17976;48.480;11.946;2023-03-24T15:42:15;1.67;;;0.95;;
31348;SDS011;17976;48.480;11.946;2023-03-24T15:44:42;1.50;;;0.88;;
31348;SDS011;17976;48.480;11.946;2023-03-24T15:47:27;2.22;;;1.23;;
31348;SDS011;17976;48.480;11.946;2023-03-24T15:49:55;1.13;;;0.60;;
31348;SDS011;17976;48.480;11.946;2023-03-24T15:54:56;2.00;;;0.70;;
31348;SDS011;17976;48.480;11.946;2023-03-24T15:57:23;1.55;;;0.75;;
31348;SDS011;17976;48.480;11.946;2023-03-24T16:00:03;1.20;;;0.55;;
31348;SDS011;17976;48.480;11.946;2023-03-24T16:02:40;1.02;;;0.70;;
31348;SDS011;17976;48.480;11.946;2023-03-24T16:05:11;0.75;;;0.50;;
31348;SDS011;17976;48.480;11.946;2023-03-24T16:07:38;1.58;;;0.70;;
31348;SDS011;17976;48.480;11.946;2023-03-24T16:10:18;2.90;;;1.00;;
31348;SDS011;17976;48.480;11.946;2023-03-24T16:12:49;1.70;;;0.93;;
31348;SDS011;17976;48.480;11.946;2023-03-24T16:15:15;1.55;;;0.82;;
31348;SDS011;17976;48.480;11.946;2023-03-24T16:17:42;1.25;;;0.60;;
31348;SDS011;17976;48.480;11.946;2023-03-24T16:20:16;0.70;;;0.70;;
31348;SDS011;17976;48.480;11.946;2023-03-24T16:22:43;1.42;;;0.90;;
31348;SDS011;17976;48.480;11.946;2023-03-24T16:25:10;3.10;;;0.80;;
31348;SDS011;17976;48.480;11.946;2023-03-24T16:27:36;2.08;;;0.82;;
31348;SDS011;17976;48.480;11.946;2023-03-24T16:30:08;3.63;;;0.93;;
31348;SDS011;17976;48.480;11.946;2023-03-24T16:32:36;1.45;;;1.02;;
31348;SDS011;17976;48.480;11.946;2023-03-24T16:35:02;1.05;;;0.95;;
31348;SDS011;17976;48.480;11.946;2023-03-24T16:37:28;2.38;;;2.17;;
31348;SDS011;17976;48.480;11.946;2023-03-24T16:39:55;2.53;;;1.50;;
31348;SDS011;17976;48.480;11.946;2023-03-24T16:42:21;3.30;;;1.20;;
31348;SDS011;17976;48.480;11.946;2023-03-24T16:44:46;2.95;;;1.58;;
31348;SDS011;17976;48.480;11.946;2023-03-24T16:47:12;4.43;;;2.00;;
31348;SDS011;17976;48.480;11.946;2023-03-24T16:49:42;2.97;;;1.30;;
31348;SDS011;17976;48.480;11.946;2023-03-24T16:52:11;1.73;;;1.00;;
31348;SDS011;17976;48.480;11.946;2023-03-24T16:54:40;4.85;;;3.20;;
31348;SDS011;17976;48.480;11.946;2023-03-24T16:57:06;4.30;;;2.60;;
31348;SDS011;17976;48.480;11.946;2023-03-24T16:59:32;1.52;;;1.05;;
31348;SDS011;17976;48.480;11.946;2023-03-24T17:01:59;4.40;;;1.65;;
31348;SDS011;17976;48.480;11.946;2023-03-24T17:04:29;2.28;;;1.40;;
31348;SDS011;17976;48.480;11.946;2023-03-24T17:06:57;5.32;;;2.25;;
31348;SDS011;17976;48.480;11.946;2023-03-24T17:09:23;1.60;;;1.25;;
31348;SDS011;17976;48.480;11.946;2023-03-24T17:11:51;1.55;;;1.10;;
31348;SDS011;17976;48.480;11.946;2023-03-24T17:14:18;4.72;;;1.13;;
31348;SDS011;17976;48.480;11.946;2023-03-24T17:16:44;1.65;;;1.27;;
31348;SDS011;17976;48.480;11.946;2023-03-24T17:19:13;1.67;;;1.00;;
31348;SDS011;17976;48.480;11.946;2023-03-24T17:21:40;1.48;;;1.10;;
31348;SDS011;17976;48.480;11.946;2023-03-24T17:24:08;1.75;;;1.13;;
31348;SDS011;17976;48.480;11.946;2023-03-24T17:26:37;1.88;;;1.33;;
31348;SDS011;17976;48.480;11.946;2023-03-24T17:29:03;2.15;;;1.38;;
31348;SDS011;17976;48.480;11.946;2023-03-24T17:31:29;1.77;;;1.00;;
31348;SDS011;17976;48.480;11.946;2023-03-24T17:33:55;2.03;;;1.17;;
31348;SDS011;17976;48.480;11.946;2023-03-24T17:36:22;1.45;;;0.98;;
31348;SDS011;17976;48.480;11.946;2023-03-24T17:38:48;1.80;;;0.98;;
31348;SDS011;17976;48.480;11.946;2023-03-24T17:41:14;1.20;;;1.08;;
31348;SDS011;17976;48.480;11.946;2023-03-24T17:43:40;1.27;;;0.90;;
31348;SDS011;17976;48.480;11.946;2023-03-24T17:46:06;1.73;;;1.13;;
31348;SDS011;17976;48.480;11.946;2023-03-24T17:48:32;2.35;;;1.33;;
31348;SDS011;17976;48.480;11.946;2023-03-24T17:50:58;4.22;;;1.50;;
31348;SDS011;17976;48.480;11.946;2023-03-24T17:53:25;1.90;;;1.40;;
31348;SDS011;17976;48.480;11.946;2023-03-24T17:55:57;2.35;;;1.60;;
31348;SDS011;17976;48.480;11.946;2023-03-24T17:58:24;1.40;;;1.30;;
31348;SDS011;17976;48.480;11.946;2023-03-24T18:00:51;2.05;;;1.30;;
31348;SDS011;17976;48.480;11.946;2023-03-24T18:03:17;2.97;;;1.20;;
31348;SDS011;17976;48.480;11.946;2023-03-24T18:05:43;3.75;;;1.70;;
31348;SDS011;17976;48.480;11.946;2023-03-24T18:08:09;2.03;;;1.35;;
31348;SDS011;17976;48.480;11.946;2023-03-24T18:10:36;2.90;;;1.50;;
31348;SDS011;17976;48.480;11.946;2023-03-24T18:13:02;2.50;;;1.38;;
31348;SDS011;17976;48.480;11.946;2023-03-24T18:15:28;1.65;;;1.23;;
31348;SDS011;17976;48.480;11.946;2023-03-24T18:17:55;1.52;;;1.20;;
31348;SDS011;17976;48.480;11.946;2023-03-24T18:20:21;1.00;;;0.90;;
31348;SDS011;17976;48.480;11.946;2023-03-24T18:22:47;2.03;;;1.10;;
31348;SDS011;17976;48.480;11.946;2023-03-24T18:25:13;2.10;;;1.10;;
31348;SDS011;17976;48.480;11.946;2023-03-24T18:27:39;1.95;;;1.42;;
31348;SDS011;17976;48.480;11.946;2023-03-24T18:30:06;3.58;;;0.98;;
31348;SDS011;17976;48.480;11.946;2023-03-24T18:32:33;2.75;;;1.10;;
31348;SDS011;17976;48.480;11.946;2023-03-24T18:34:59;1.08;;;0.80;;
31348;SDS011;17976;48.480;11.946;2023-03-24T18:37:26;1.05;;;0.95;;
31348;SDS011;17976;48.480;11.946;2023-03-24T18:39:52;5.13;;;1.40;;
31348;SDS011;17976;48.480;11.946;2023-03-24T18:42:18;1.33;;;0.95;;
31348;SDS011;17976;48.480;11.946;2023-03-24T18:44:45;1.58;;;0.88;;
31348;SDS011;17976;48.480;11.946;2023-03-24T18:47:11;1.40;;;0.90;;
31348;SDS011;17976;48.480;11.946;2023-03-24T18:49:37;1.48;;;0.90;;
31348;SDS011;17976;48.480;11.946;2023-03-24T18:52:04;1.92;;;1.15;;
31348;SDS011;17976;48.480;11.946;2023-03-24T18:54:30;2.53;;;0.90;;
31348;SDS011;17976;48.480;11.946;2023-03-24T18:56:56;1.67;;;0.70;;
31348;SDS011;17976;48.480;11.946;2023-03-24T18:59:22;1.15;;;0.93;;
31348;SDS011;17976;48.480;11.946;2023-03-24T19:01:48;2.63;;;1.38;;
31348;SDS011;17976;48.480;11.946;2023-03-24T19:04:14;1.13;;;0.75;;
31348;SDS011;17976;48.480;11.946;2023-03-24T19:06:40;1.58;;;0.93;;
31348;SDS011;17976;48.480;11.946;2023-03-24T19:09:07;2.30;;;1.38;;
31348;SDS011;17976;48.480;11.946;2023-03-24T19:11:33;2.75;;;1.50;;
31348;SDS011;17976;48.480;11.946;2023-03-24T19:13:59;1.95;;;1.27;;
31348;SDS011;17976;48.480;11.946;2023-03-24T19:16:25;1.50;;;0.95;;
31348;SDS011;17976;48.480;11.946;2023-03-24T19:18:52;1.40;;;1.02;;
31348;SDS011;17976;48.480;11.946;2023-03-24T19:21:18;2.25;;;1.08;;
31348;SDS011;17976;48.480;11.946;2023-03-24T19:23:47;2.08;;;1.10;;
31348;SDS011;17976;48.480;11.946;2023-03-24T19:26:13;3.08;;;1.10;;
31348;SDS011;17976;48.480;11.946;2023-03-24T19:28:44;3.05;;;1.48;;
31348;SDS011;17976;48.480;11.946;2023-03-24T19:31:13;2.13;;;1.20;;
31348;SDS011;17976;48.480;11.946;2023-03-24T19:33:41;2.33;;;1.40;;
31348;SDS011;17976;48.480;11.946;2023-03-24T19:36:07;1.10;;;1.00;;
31348;SDS011;17976;48.480;11.946;2023-03-24T19:38:34;3.40;;;1.10;;
31348;SDS011;17976;48.480;11.946;2023-03-24T19:41:03;0.80;;;0.70;;
31348;SDS011;17976;48.480;11.946;2023-03-24T19:43:30;2.55;;;1.10;;
31348;SDS011;17976;48.480;11.946;2023-03-24T19:45:58;1.40;;;1.00;;
31348;SDS011;17976;48.480;11.946;2023-03-24T19:48:24;1.27;;;0.77;;
31348;SDS011;17976;48.480;11.946;2023-03-24T19:50:51;4.63;;;1.45;;
31348;SDS011;17976;48.480;11.946;2023-03-24T19:53:18;1.85;;;1.00;;
31348;SDS011;17976;48.480;11.946;2023-03-24T19:55:44;3.88;;;0.90;;
31348;SDS011;17976;48.480;11.946;2023-03-24T19:58:10;2.47;;;1.05;;
31348;SDS011;17976;48.480;11.946;2023-03-24T20:00:37;1.63;;;1.20;;
31348;SDS011;17976;48.480;11.946;2023-03-24T20:03:03;7.82;;;1.23;;
31348;SDS011;17976;48.480;11.946;2023-03-24T20:05:29;1.98;;;0.90;;
31348;SDS011;17976;48.480;11.946;2023-03-24T20:07:55;1.63;;;0.88;;
31348;SDS011;17976;48.480;11.946;2023-03-24T20:10:22;1.75;;;1.10;;
31348;SDS011;17976;48.480;11.946;2023-03-24T20:12:48;1.80;;;0.90;;
31348;SDS011;17976;48.480;11.946;2023-03-24T20:15:17;1.40;;;1.05;;
31348;SDS011;17976;48.480;11.946;2023-03-24T20:17:43;2.67;;;1.10;;
31348;SDS011;17976;48.480;11.946;2023-03-24T20:20:09;1.25;;;0.70;;
31348;SDS011;17976;48.480;11.946;2023-03-24T20:22:36;2.83;;;1.10;;
31348;SDS011;17976;48.480;11.946;2023-03-24T20:25:08;2.35;;;0.82;;
31348;SDS011;17976;48.480;11.946;2023-03-24T20:27:34;2.95;;;1.15;;
31348;SDS011;17976;48.480;11.946;2023-03-24T20:30:01;2.38;;;0.93;;
31348;SDS011;17976;48.480;11.946;2023-03-24T20:32:27;1.83;;;0.90;;
31348;SDS011;17976;48.480;11.946;2023-03-24T20:34:53;1.30;;;1.00;;
31348;SDS011;17976;48.480;11.946;2023-03-24T20:37:19;2.15;;;1.00;;
31348;SDS011;17976;48.480;11.946;2023-03-24T20:39:45;1.13;;;0.90;;
31348;SDS011;17976;48.480;11.946;2023-03-24T20:42:11;2.25;;;0.82;;
31348;SDS011;17976;48.480;11.946;2023-03-24T20:44:37;1.40;;;1.00;;
31348;SDS011;17976;48.480;11.946;2023-03-24T20:47:03;1.02;;;0.75;;
31348;SDS011;17976;48.480;11.946;2023-03-24T20:49:31;1.60;;;1.27;;
31348;SDS011;17976;48.480;11.946;2023-03-24T20:51:57;4.32;;;0.90;;
31348;SDS011;17976;48.480;11.946;2023-03-24T20:54:23;1.40;;;1.00;;
31348;SDS011;17976;48.480;11.946;2023-03-24T20:56:49;1.13;;;0.82;;
31348;SDS011;17976;48.480;11.946;2023-03-24T20:59:16;1.38;;;1.17;;
